Victoria New Zealand — ZM2502 — position and weather

sailwx.info

Track history (hours):
 
Tides and Currents Weather Stations Pressure Air Temp Water Temp Dewpoint Dewpoint Depression Visibility Wind Speed Wind Dir Waves Ship Positions

Victoria New Zealand

Last reported at 2017-Nov-18 17:51 UTC. Time now 2017-Nov-21 08:24 UTC.
Position N 14°27' W 061°02'.

Length 16 m.

Type: Sailing vessel. MMSI: 512003016.

Date/timePositionNaut miles runAvg speedWind from/ knotsBaromVisibWave heightAir tempDewpointWater temp
2017-Nov-18 17:51N 14°27' W 061°02'2 5.5
2017-Nov-18 17:30N 14°27' W 061°00'2 4.3
2017-Nov-18 17:00N 14°27' W 060°58'2 4.2
2017-Nov-18 16:30N 14°27' W 060°56'3 5.6
2017-Nov-18 16:00N 14°27' W 060°53'1 1.9
2017-Nov-18 15:30N 14°28' W 060°52'0 0.0
2017-Nov-18 15:00N 14°28' W 060°52'0 0.0
2017-Nov-18 14:30N 14°28' W 060°52'0 0.0
2017-Nov-18 14:00N 14°28' W 060°52'0 0.0
2017-Nov-18 13:30N 14°28' W 060°52'0 0.0
2017-Nov-18 13:00N 14°28' W 060°52'0 0.0
2017-Nov-18 12:30N 14°28' W 060°52'0 0.0
2017-Nov-18 12:00N 14°28' W 060°52'0 0.0
2017-Nov-18 11:30N 14°28' W 060°52'0 0.0
2017-Nov-18 11:00N 14°28' W 060°52'0 0.0
2017-Nov-18 00:36N 14°28' W 060°52'0 0.1
2017-Nov-18 00:30N 14°28' W 060°52'0 0.0
2017-Nov-18 00:00N 14°28' W 060°52'0 0.0
2017-Nov-17 23:30N 14°28' W 060°52'0 0.0
2017-Nov-17 23:00N 14°28' W 060°52'0 0.0
2017-Nov-17 22:30N 14°28' W 060°52'0 0.0
2017-Nov-17 22:00N 14°28' W 060°52'0 0.0
2017-Nov-17 21:30N 14°28' W 060°52'0 0.0
2017-Nov-17 21:00N 14°28' W 060°52'0 0.0
2017-Nov-17 20:30N 14°28' W 060°52'0 0.0
2017-Nov-17 20:00N 14°28' W 060°52'0 0.0
2017-Nov-17 19:30N 14°28' W 060°52'0 0.0
2017-Nov-17 19:00N 14°28' W 060°52'0 0.0
2017-Nov-17 18:30N 14°28' W 060°52'0 0.0
2017-Nov-17 18:00N 14°28' W 060°52'0 0.0
2017-Nov-17 17:30N 14°28' W 060°52'0 0.0
2017-Nov-17 17:00N 14°28' W 060°52'0 0.0
2017-Nov-17 16:30N 14°28' W 060°52'0 0.0
2017-Nov-17 16:00N 14°28' W 060°52'0 0.0
2017-Nov-17 15:30N 14°28' W 060°52'0 0.0
2017-Nov-17 15:00N 14°28' W 060°52'0 0.0
2017-Nov-17 14:30N 14°28' W 060°52'0 0.0
2017-Nov-17 14:00N 14°28' W 060°52'0 0.0
2017-Nov-17 04:22N 14°28' W 060°52'0 0.0
2017-Nov-17 03:58N 14°28' W 060°52'0 0.0
2017-Nov-17 03:28N 14°28' W 060°52'0 0.0
2017-Nov-17 02:58N 14°28' W 060°52'0 0.0
2017-Nov-17 02:28N 14°28' W 060°52'0 0.0
2017-Nov-17 01:58N 14°28' W 060°52'0 0.0
2017-Nov-17 01:28N 14°28' W 060°52'0 0.0
2017-Nov-17 00:58N 14°28' W 060°52'0 0.0
2017-Nov-17 00:28N 14°28' W 060°52'0 0.0
2017-Nov-16 23:58N 14°28' W 060°52'0 0.0
2017-Nov-16 23:28N 14°28' W 060°52'0 0.0
2017-Nov-16 22:58N 14°28' W 060°52'0 0.0
2017-Nov-16 22:28N 14°28' W 060°52'0 0.0
2017-Nov-16 21:58N 14°28' W 060°52'0 0.0
2017-Nov-16 21:28N 14°28' W 060°52'0 0.0
2017-Nov-16 20:58N 14°28' W 060°52'0 0.0
2017-Nov-16 20:28N 14°28' W 060°52'0 0.0
2017-Nov-16 19:58N 14°28' W 060°52'0 0.0
2017-Nov-16 19:28N 14°28' W 060°52'0 0.0
2017-Nov-16 18:58N 14°28' W 060°52'1 1.9
2017-Nov-16 18:30N 14°27' W 060°53'1 2.4
2017-Nov-16 17:58N 14°26' W 060°53'0 0.0
2017-Nov-16 17:28N 14°26' W 060°53'0 0.0
2017-Nov-16 16:58N 14°26' W 060°53'0 0.0
2017-Nov-16 16:28N 14°26' W 060°53'0 0.0
2017-Nov-16 15:58N 14°26' W 060°53'0 0.0
2017-Nov-16 15:28N 14°26' W 060°53'0 0.0
2017-Nov-16 14:58N 14°26' W 060°53'0 0.0
2017-Nov-16 14:28N 14°26' W 060°53'0 0.0
2017-Nov-16 13:58N 14°26' W 060°53'0 0.0
2017-Nov-16 13:28N 14°26' W 060°53'0 0.0
2017-Nov-16 12:58N 14°26' W 060°53'0 0.0
2017-Nov-16 12:28N 14°26' W 060°53'0 0.0
2017-Nov-16 11:58N 14°26' W 060°53'0 0.0
2017-Nov-16 11:25N 14°26' W 060°53'0 0.0
2017-Nov-16 10:58N 14°26' W 060°53'0 0.0
2017-Nov-16 10:28N 14°26' W 060°53'0 0.0
2017-Nov-16 09:58N 14°26' W 060°53'0 0.0
2017-Nov-16 09:28N 14°26' W 060°53'0 0.0
2017-Nov-16 08:58N 14°26' W 060°53'0 0.0
2017-Nov-16 08:28N 14°26' W 060°53'0 0.0
2017-Nov-16 07:58N 14°26' W 060°53'0 0.0
2017-Nov-16 07:28N 14°26' W 060°53'0 0.0
2017-Nov-16 06:13N 14°26' W 060°53'0 0.0
2017-Nov-16 05:58N 14°26' W 060°53'0 0.0
2017-Nov-16 05:28N 14°26' W 060°53'0 0.0
2017-Nov-16 04:58N 14°26' W 060°53'0 0.0
2017-Nov-16 04:28N 14°26' W 060°53'0 0.0
2017-Nov-16 03:58N 14°26' W 060°53'0 0.0
2017-Nov-16 03:28N 14°26' W 060°53'0 0.0
2017-Nov-16 02:58N 14°26' W 060°53'0 0.0
2017-Nov-16 02:28N 14°26' W 060°53'0 0.0
2017-Nov-16 01:58N 14°26' W 060°53'0 0.0
2017-Nov-16 01:28N 14°26' W 060°53'0 0.0
2017-Nov-16 00:58N 14°26' W 060°53'0 0.0
2017-Nov-16 00:28N 14°26' W 060°53'0 0.0
2017-Nov-15 23:59N 14°26' W 060°53'0 0.0
2017-Nov-15 23:29N 14°26' W 060°53'0 0.0
2017-Nov-15 22:59N 14°26' W 060°53'2 0.4
2017-Nov-15 18:00N 14°28' W 060°52'0 0.0
2017-Nov-15 17:30N 14°28' W 060°52'0 0.0
2017-Nov-15 17:00N 14°28' W 060°52'0 0.0
2017-Nov-15 16:30N 14°28' W 060°52'0 0.0
2017-Nov-15 16:00N 14°28' W 060°52'0 0.0
2017-Nov-15 15:30N 14°28' W 060°52'0 0.0
2017-Nov-15 15:00N 14°28' W 060°52'0 0.6
2017-Nov-15 14:30N 14°28' W 060°52'0 0.3
2017-Nov-15 13:58N 14°28' W 060°52'1 1.2
2017-Nov-15 13:30N 14°28' W 060°53'2 4.0
2017-Nov-15 12:58N 14°26' W 060°53'0 0.0
2017-Nov-15 12:28N 14°26' W 060°53'0 0.0
2017-Nov-15 11:55N 14°26' W 060°53'0 0.0
2017-Nov-15 11:28N 14°26' W 060°53'0 0.0
2017-Nov-15 10:58N 14°26' W 060°53'0 0.0
2017-Nov-15 10:28N 14°26' W 060°53'0 0.0
2017-Nov-15 09:58N 14°26' W 060°53'0 0.0
2017-Nov-15 09:28N 14°26' W 060°53'0 0.0
2017-Nov-15 08:58N 14°26' W 060°53'0 0.0
2017-Nov-15 08:28N 14°26' W 060°53'0 0.0
2017-Nov-15 07:58N 14°26' W 060°53'0 0.0
2017-Nov-15 07:28N 14°26' W 060°53'0 0.0
2017-Nov-15 06:13N 14°26' W 060°53'0 0.0
2017-Nov-15 05:58N 14°26' W 060°53'0 0.0
2017-Nov-15 05:28N 14°26' W 060°53'0 0.0
2017-Nov-15 04:58N 14°26' W 060°53'0 0.0
2017-Nov-15 04:28N 14°26' W 060°53'0 0.0
2017-Nov-15 03:58N 14°26' W 060°53'0 0.0
2017-Nov-15 03:28N 14°26' W 060°53'0 0.0
2017-Nov-15 02:58N 14°26' W 060°53'0 0.0
2017-Nov-15 02:28N 14°26' W 060°53'0 0.0
2017-Nov-15 01:58N 14°26' W 060°53'0 0.0
2017-Nov-15 01:28N 14°26' W 060°53'0 0.0
2017-Nov-15 00:58N 14°26' W 060°53'0 0.0
2017-Nov-15 00:28N 14°26' W 060°53'0 0.0
2017-Nov-14 23:58N 14°26' W 060°53'0 0.0
2017-Nov-14 23:28N 14°26' W 060°53'0 0.0
2017-Nov-14 22:58N 14°26' W 060°53'0 0.0
2017-Nov-14 22:28N 14°26' W 060°53'0 0.0
2017-Nov-14 21:58N 14°26' W 060°53'0 0.0
2017-Nov-14 21:25N 14°26' W 060°53'0 0.0
2017-Nov-14 20:58N 14°26' W 060°53'1 2.9
2017-Nov-14 20:30N 14°25' W 060°55'3 5.9
2017-Nov-14 20:00N 14°22' W 060°56'  
Track history (hours):
 
Tides and Currents Weather Stations Pressure Air Temp Water Temp Dewpoint Dewpoint Depression Visibility Wind Speed Wind Dir Waves Ship Positions

Victoria New Zealand

Last reported at 2017-Nov-18 17:51 UTC. Time now 2017-Nov-21 08:24 UTC.
Position N 14°27' W 061°02'.

Length 16 m.

Type: Sailing vessel. MMSI: 512003016.

Date/timePositionNaut miles runAvg speedWind from/ knotsBaromVisibWave heightAir tempDewpointWater temp
2017-Nov-18 17:51N 14°27' W 061°02'2 5.5
2017-Nov-18 17:30N 14°27' W 061°00'2 4.3
2017-Nov-18 17:00N 14°27' W 060°58'2 4.2
2017-Nov-18 16:30N 14°27' W 060°56'3 5.6
2017-Nov-18 16:00N 14°27' W 060°53'1 1.9
2017-Nov-18 15:30N 14°28' W 060°52'0 0.0
2017-Nov-18 15:00N 14°28' W 060°52'0 0.0
2017-Nov-18 14:30N 14°28' W 060°52'0 0.0
2017-Nov-18 14:00N 14°28' W 060°52'0 0.0
2017-Nov-18 13:30N 14°28' W 060°52'0 0.0
2017-Nov-18 13:00N 14°28' W 060°52'0 0.0
2017-Nov-18 12:30N 14°28' W 060°52'0 0.0
2017-Nov-18 12:00N 14°28' W 060°52'0 0.0
2017-Nov-18 11:30N 14°28' W 060°52'0 0.0
2017-Nov-18 11:00N 14°28' W 060°52'0 0.0
2017-Nov-18 00:36N 14°28' W 060°52'0 0.1
2017-Nov-18 00:30N 14°28' W 060°52'0 0.0
2017-Nov-18 00:00N 14°28' W 060°52'0 0.0
2017-Nov-17 23:30N 14°28' W 060°52'0 0.0
2017-Nov-17 23:00N 14°28' W 060°52'0 0.0
2017-Nov-17 22:30N 14°28' W 060°52'0 0.0
2017-Nov-17 22:00N 14°28' W 060°52'0 0.0
2017-Nov-17 21:30N 14°28' W 060°52'0 0.0
2017-Nov-17 21:00N 14°28' W 060°52'0 0.0
2017-Nov-17 20:30N 14°28' W 060°52'0 0.0
2017-Nov-17 20:00N 14°28' W 060°52'0 0.0
2017-Nov-17 19:30N 14°28' W 060°52'0 0.0
2017-Nov-17 19:00N 14°28' W 060°52'0 0.0
2017-Nov-17 18:30N 14°28' W 060°52'0 0.0
2017-Nov-17 18:00N 14°28' W 060°52'0 0.0
2017-Nov-17 17:30N 14°28' W 060°52'0 0.0
2017-Nov-17 17:00N 14°28' W 060°52'0 0.0
2017-Nov-17 16:30N 14°28' W 060°52'0 0.0
2017-Nov-17 16:00N 14°28' W 060°52'0 0.0
2017-Nov-17 15:30N 14°28' W 060°52'0 0.0
2017-Nov-17 15:00N 14°28' W 060°52'0 0.0
2017-Nov-17 14:30N 14°28' W 060°52'0 0.0
2017-Nov-17 14:00N 14°28' W 060°52'0 0.0
2017-Nov-17 04:22N 14°28' W 060°52'0 0.0
2017-Nov-17 03:58N 14°28' W 060°52'0 0.0
2017-Nov-17 03:28N 14°28' W 060°52'0 0.0
2017-Nov-17 02:58N 14°28' W 060°52'0 0.0
2017-Nov-17 02:28N 14°28' W 060°52'0 0.0
2017-Nov-17 01:58N 14°28' W 060°52'0 0.0
2017-Nov-17 01:28N 14°28' W 060°52'0 0.0
2017-Nov-17 00:58N 14°28' W 060°52'0 0.0
2017-Nov-17 00:28N 14°28' W 060°52'0 0.0
2017-Nov-16 23:58N 14°28' W 060°52'0 0.0
2017-Nov-16 23:28N 14°28' W 060°52'0 0.0
2017-Nov-16 22:58N 14°28' W 060°52'0 0.0
2017-Nov-16 22:28N 14°28' W 060°52'0 0.0
2017-Nov-16 21:58N 14°28' W 060°52'0 0.0
2017-Nov-16 21:28N 14°28' W 060°52'0 0.0
2017-Nov-16 20:58N 14°28' W 060°52'0 0.0
2017-Nov-16 20:28N 14°28' W 060°52'0 0.0
2017-Nov-16 19:58N 14°28' W 060°52'0 0.0
2017-Nov-16 19:28N 14°28' W 060°52'0 0.0
2017-Nov-16 18:58N 14°28' W 060°52'1 1.9
2017-Nov-16 18:30N 14°27' W 060°53'1 2.4
2017-Nov-16 17:58N 14°26' W 060°53'0 0.0
2017-Nov-16 17:28N 14°26' W 060°53'0 0.0
2017-Nov-16 16:58N 14°26' W 060°53'0 0.0
2017-Nov-16 16:28N 14°26' W 060°53'0 0.0
2017-Nov-16 15:58N 14°26' W 060°53'0 0.0
2017-Nov-16 15:28N 14°26' W 060°53'0 0.0
2017-Nov-16 14:58N 14°26' W 060°53'0 0.0
2017-Nov-16 14:28N 14°26' W 060°53'0 0.0
2017-Nov-16 13:58N 14°26' W 060°53'0 0.0
2017-Nov-16 13:28N 14°26' W 060°53'0 0.0
2017-Nov-16 12:58N 14°26' W 060°53'0 0.0
2017-Nov-16 12:28N 14°26' W 060°53'0 0.0
2017-Nov-16 11:58N 14°26' W 060°53'0 0.0
2017-Nov-16 11:25N 14°26' W 060°53'0 0.0
2017-Nov-16 10:58N 14°26' W 060°53'0 0.0
2017-Nov-16 10:28N 14°26' W 060°53'0 0.0
2017-Nov-16 09:58N 14°26' W 060°53'0 0.0
2017-Nov-16 09:28N 14°26' W 060°53'0 0.0
2017-Nov-16 08:58N 14°26' W 060°53'0 0.0
2017-Nov-16 08:28N 14°26' W 060°53'0 0.0
2017-Nov-16 07:58N 14°26' W 060°53'0 0.0
2017-Nov-16 07:28N 14°26' W 060°53'0 0.0
2017-Nov-16 06:13N 14°26' W 060°53'0 0.0
2017-Nov-16 05:58N 14°26' W 060°53'0 0.0
2017-Nov-16 05:28N 14°26' W 060°53'0 0.0
2017-Nov-16 04:58N 14°26' W 060°53'0 0.0
2017-Nov-16 04:28N 14°26' W 060°53'0 0.0
2017-Nov-16 03:58N 14°26' W 060°53'0 0.0
2017-Nov-16 03:28N 14°26' W 060°53'0 0.0
2017-Nov-16 02:58N 14°26' W 060°53'0 0.0
2017-Nov-16 02:28N 14°26' W 060°53'0 0.0
2017-Nov-16 01:58N 14°26' W 060°53'0 0.0
2017-Nov-16 01:28N 14°26' W 060°53'0 0.0
2017-Nov-16 00:58N 14°26' W 060°53'0 0.0
2017-Nov-16 00:28N 14°26' W 060°53'0 0.0
2017-Nov-15 23:59N 14°26' W 060°53'0 0.0
2017-Nov-15 23:29N 14°26' W 060°53'0 0.0
2017-Nov-15 22:59N 14°26' W 060°53'2 0.4
2017-Nov-15 18:00N 14°28' W 060°52'0 0.0
2017-Nov-15 17:30N 14°28' W 060°52'0 0.0
2017-Nov-15 17:00N 14°28' W 060°52'0 0.0
2017-Nov-15 16:30N 14°28' W 060°52'0 0.0
2017-Nov-15 16:00N 14°28' W 060°52'0 0.0
2017-Nov-15 15:30N 14°28' W 060°52'0 0.0
2017-Nov-15 15:00N 14°28' W 060°52'0 0.6
2017-Nov-15 14:30N 14°28' W 060°52'0 0.3
2017-Nov-15 13:58N 14°28' W 060°52'1 1.2
2017-Nov-15 13:30N 14°28' W 060°53'2 4.0
2017-Nov-15 12:58N 14°26' W 060°53'0 0.0
2017-Nov-15 12:28N 14°26' W 060°53'0 0.0
2017-Nov-15 11:55N 14°26' W 060°53'0 0.0
2017-Nov-15 11:28N 14°26' W 060°53'0 0.0
2017-Nov-15 10:58N 14°26' W 060°53'0 0.0
2017-Nov-15 10:28N 14°26' W 060°53'0 0.0
2017-Nov-15 09:58N 14°26' W 060°53'0 0.0
2017-Nov-15 09:28N 14°26' W 060°53'0 0.0
2017-Nov-15 08:58N 14°26' W 060°53'0 0.0
2017-Nov-15 08:28N 14°26' W 060°53'0 0.0
2017-Nov-15 07:58N 14°26' W 060°53'0 0.0
2017-Nov-15 07:28N 14°26' W 060°53'0 0.0
2017-Nov-15 06:13N 14°26' W 060°53'0 0.0
2017-Nov-15 05:58N 14°26' W 060°53'0 0.0
2017-Nov-15 05:28N 14°26' W 060°53'0 0.0
2017-Nov-15 04:58N 14°26' W 060°53'0 0.0
2017-Nov-15 04:28N 14°26' W 060°53'0 0.0
2017-Nov-15 03:58N 14°26' W 060°53'0 0.0
2017-Nov-15 03:28N 14°26' W 060°53'0 0.0
2017-Nov-15 02:58N 14°26' W 060°53'0 0.0
2017-Nov-15 02:28N 14°26' W 060°53'0 0.0
2017-Nov-15 01:58N 14°26' W 060°53'0 0.0
2017-Nov-15 01:28N 14°26' W 060°53'0 0.0
2017-Nov-15 00:58N 14°26' W 060°53'0 0.0
2017-Nov-15 00:28N 14°26' W 060°53'0 0.0
2017-Nov-14 23:58N 14°26' W 060°53'0 0.0
2017-Nov-14 23:28N 14°26' W 060°53'0 0.0
2017-Nov-14 22:58N 14°26' W 060°53'0 0.0
2017-Nov-14 22:28N 14°26' W 060°53'0 0.0
2017-Nov-14 21:58N 14°26' W 060°53'0 0.0
2017-Nov-14 21:25N 14°26' W 060°53'0 0.0
2017-Nov-14 20:58N 14°26' W 060°53'1 2.9
2017-Nov-14 20:30N 14°25' W 060°55'3 5.9
2017-Nov-14 20:00N 14°22' W 060°56'  

Dump ship's entire track history